sensor_id;sensor_type;location;lat;lon;timestamp;P1;durP1;ratioP1;P2;durP2;ratioP2
57858;SDS011;49153;45.568;11.894;2022-08-02T00:01:37;4.03;;;2.40;;
57858;SDS011;49153;45.568;11.894;2022-08-02T00:04:03;4.28;;;2.40;;
57858;SDS011;49153;45.568;11.894;2022-08-02T00:06:28;5.18;;;2.40;;
57858;SDS011;49153;45.568;11.894;2022-08-02T00:08:54;3.38;;;2.40;;
57858;SDS011;49153;45.568;11.894;2022-08-02T00:11:19;3.58;;;2.55;;
57858;SDS011;49153;45.568;11.894;2022-08-02T00:13:45;5.13;;;2.50;;
57858;SDS011;49153;45.568;11.894;2022-08-02T00:16:11;3.85;;;2.10;;
57858;SDS011;49153;45.568;11.894;2022-08-02T00:18:37;3.67;;;2.40;;
57858;SDS011;49153;45.568;11.894;2022-08-02T00:21:03;3.80;;;2.45;;
57858;SDS011;49153;45.568;11.894;2022-08-02T00:23:29;2.65;;;2.45;;
57858;SDS011;49153;45.568;11.894;2022-08-02T00:25:54;3.13;;;2.78;;
57858;SDS011;49153;45.568;11.894;2022-08-02T00:28:20;4.03;;;3.20;;
57858;SDS011;49153;45.568;11.894;2022-08-02T00:30:46;6.03;;;2.85;;
57858;SDS011;49153;45.568;11.894;2022-08-02T00:33:11;4.30;;;3.03;;
57858;SDS011;49153;45.568;11.894;2022-08-02T00:35:37;6.22;;;2.80;;
57858;SDS011;49153;45.568;11.894;2022-08-02T00:38:03;4.63;;;2.80;;
57858;SDS011;49153;45.568;11.894;2022-08-02T00:40:29;6.05;;;2.80;;
57858;SDS011;49153;45.568;11.894;2022-08-02T00:45:31;4.07;;;2.60;;
57858;SDS011;49153;45.568;11.894;2022-08-02T00:47:58;2.80;;;2.50;;
57858;SDS011;49153;45.568;11.894;2022-08-02T00:50:24;5.03;;;3.08;;
57858;SDS011;49153;45.568;11.894;2022-08-02T00:52:50;3.22;;;2.80;;
57858;SDS011;49153;45.568;11.894;2022-08-02T00:55:15;4.13;;;2.70;;
57858;SDS011;49153;45.568;11.894;2022-08-02T00:57:41;3.67;;;2.30;;
57858;SDS011;49153;45.568;11.894;2022-08-02T01:00:07;5.80;;;2.45;;
57858;SDS011;49153;45.568;11.894;2022-08-02T01:02:33;3.00;;;2.28;;
57858;SDS011;49153;45.568;11.894;2022-08-02T01:04:58;2.95;;;2.20;;
57858;SDS011;49153;45.568;11.894;2022-08-02T01:07:24;3.28;;;2.42;;
57858;SDS011;49153;45.568;11.894;2022-08-02T01:09:51;5.95;;;2.20;;
57858;SDS011;49153;45.568;11.894;2022-08-02T01:12:16;3.20;;;2.40;;
57858;SDS011;49153;45.568;11.894;2022-08-02T01:14:42;3.25;;;2.10;;
57858;SDS011;49153;45.568;11.894;2022-08-02T01:17:21;4.22;;;2.08;;
57858;SDS011;49153;45.568;11.894;2022-08-02T01:29:07;3.00;;;1.75;;
57858;SDS011;49153;45.568;11.894;2022-08-02T01:31:49;11.57;;;2.03;;
57858;SDS011;49153;45.568;11.894;2022-08-02T01:40:05;6.18;;;1.60;;
57858;SDS011;49153;45.568;11.894;2022-08-02T01:42:34;2.92;;;1.25;;
57858;SDS011;49153;45.568;11.894;2022-08-02T01:45:02;6.22;;;1.42;;
57858;SDS011;49153;45.568;11.894;2022-08-02T01:47:30;9.18;;;1.10;;
57858;SDS011;49153;45.568;11.894;2022-08-02T01:50:02;2.85;;;1.10;;
57858;SDS011;49153;45.568;11.894;2022-08-02T01:52:31;4.82;;;1.17;;
57858;SDS011;49153;45.568;11.894;2022-08-02T01:55:07;7.90;;;1.03;;
57858;SDS011;49153;45.568;11.894;2022-08-02T01:57:42;3.83;;;1.00;;
57858;SDS011;49153;45.568;11.894;2022-08-02T02:00:11;2.28;;;1.00;;
57858;SDS011;49153;45.568;11.894;2022-08-02T02:02:39;2.95;;;0.90;;
57858;SDS011;49153;45.568;11.894;2022-08-02T02:05:12;6.70;;;1.35;;
57858;SDS011;49153;45.568;11.894;2022-08-02T02:07:39;1.92;;;0.90;;
57858;SDS011;49153;45.568;11.894;2022-08-02T02:10:08;3.97;;;1.00;;
57858;SDS011;49153;45.568;11.894;2022-08-02T02:12:38;2.50;;;0.90;;
57858;SDS011;49153;45.568;11.894;2022-08-02T02:15:05;2.83;;;0.95;;
57858;SDS011;49153;45.568;11.894;2022-08-02T02:17:34;3.42;;;0.90;;
57858;SDS011;49153;45.568;11.894;2022-08-02T02:20:00;1.30;;;0.70;;
57858;SDS011;49153;45.568;11.894;2022-08-02T02:22:27;2.95;;;0.60;;
57858;SDS011;49153;45.568;11.894;2022-08-02T02:24:53;3.90;;;0.80;;
57858;SDS011;49153;45.568;11.894;2022-08-02T02:27:19;1.13;;;0.75;;
57858;SDS011;49153;45.568;11.894;2022-08-02T02:29:48;3.65;;;0.80;;
57858;SDS011;49153;45.568;11.894;2022-08-02T02:32:16;4.22;;;0.80;;
57858;SDS011;49153;45.568;11.894;2022-08-02T02:34:43;1.65;;;0.70;;
57858;SDS011;49153;45.568;11.894;2022-08-02T02:37:16;4.05;;;0.60;;
57858;SDS011;49153;45.568;11.894;2022-08-02T02:39:47;1.75;;;0.70;;
57858;SDS011;49153;45.568;11.894;2022-08-02T02:42:15;1.58;;;0.63;;
57858;SDS011;49153;45.568;11.894;2022-08-02T02:44:43;3.85;;;0.60;;
57858;SDS011;49153;45.568;11.894;2022-08-02T02:47:11;3.97;;;0.80;;
57858;SDS011;49153;45.568;11.894;2022-08-02T02:49:39;1.85;;;0.80;;
57858;SDS011;49153;45.568;11.894;2022-08-02T02:52:07;3.08;;;0.90;;
57858;SDS011;49153;45.568;11.894;2022-08-02T02:54:33;3.08;;;0.70;;
57858;SDS011;49153;45.568;11.894;2022-08-02T02:57:01;0.68;;;0.50;;
57858;SDS011;49153;45.568;11.894;2022-08-02T02:59:29;3.00;;;0.63;;
57858;SDS011;49153;45.568;11.894;2022-08-02T03:01:54;2.63;;;0.50;;
57858;SDS011;49153;45.568;11.894;2022-08-02T03:04:20;2.00;;;0.65;;
57858;SDS011;49153;45.568;11.894;2022-08-02T03:06:48;1.65;;;0.50;;
57858;SDS011;49153;45.568;11.894;2022-08-02T03:09:13;1.75;;;0.47;;
57858;SDS011;49153;45.568;11.894;2022-08-02T03:11:39;0.73;;;0.50;;
57858;SDS011;49153;45.568;11.894;2022-08-02T03:14:07;2.45;;;0.50;;
57858;SDS011;49153;45.568;11.894;2022-08-02T03:16:40;1.38;;;0.60;;
57858;SDS011;49153;45.568;11.894;2022-08-02T03:19:10;3.22;;;0.60;;
57858;SDS011;49153;45.568;11.894;2022-08-02T03:21:35;1.30;;;0.40;;
57858;SDS011;49153;45.568;11.894;2022-08-02T03:24:01;0.90;;;0.60;;
57858;SDS011;49153;45.568;11.894;2022-08-02T03:26:27;2.28;;;0.50;;
57858;SDS011;49153;45.568;11.894;2022-08-02T03:28:52;0.93;;;0.50;;
57858;SDS011;49153;45.568;11.894;2022-08-02T03:31:17;2.75;;;0.60;;
57858;SDS011;49153;45.568;11.894;2022-08-02T03:33:43;4.95;;;0.60;;
57858;SDS011;49153;45.568;11.894;2022-08-02T03:36:10;2.13;;;0.80;;
57858;SDS011;49153;45.568;11.894;2022-08-02T03:41:06;1.58;;;0.70;;
57858;SDS011;49153;45.568;11.894;2022-08-02T03:44:12;1.20;;;0.70;;
57858;SDS011;49153;45.568;11.894;2022-08-02T03:46:38;1.17;;;0.70;;
57858;SDS011;49153;45.568;11.894;2022-08-02T03:49:06;1.80;;;0.80;;
57858;SDS011;49153;45.568;11.894;2022-08-02T03:51:33;2.35;;;0.82;;
57858;SDS011;49153;45.568;11.894;2022-08-02T03:54:00;1.20;;;0.82;;
57858;SDS011;49153;45.568;11.894;2022-08-02T03:56:27;0.95;;;0.77;;
57858;SDS011;49153;45.568;11.894;2022-08-02T03:59:10;1.33;;;0.80;;
57858;SDS011;49153;45.568;11.894;2022-08-02T04:01:38;4.25;;;0.90;;
57858;SDS011;49153;45.568;11.894;2022-08-02T04:04:05;2.33;;;0.80;;
57858;SDS011;49153;45.568;11.894;2022-08-02T04:06:42;1.30;;;0.88;;
57858;SDS011;49153;45.568;11.894;2022-08-02T04:09:08;1.58;;;0.90;;
57858;SDS011;49153;45.568;11.894;2022-08-02T04:11:35;5.72;;;1.00;;
57858;SDS011;49153;45.568;11.894;2022-08-02T04:14:03;2.25;;;1.10;;
57858;SDS011;49153;45.568;11.894;2022-08-02T04:16:45;2.03;;;0.90;;
57858;SDS011;49153;45.568;11.894;2022-08-02T04:19:16;3.28;;;1.00;;
57858;SDS011;49153;45.568;11.894;2022-08-02T04:21:45;3.38;;;1.08;;
57858;SDS011;49153;45.568;11.894;2022-08-02T04:24:35;1.90;;;0.90;;
57858;SDS011;49153;45.568;11.894;2022-08-02T04:27:09;3.17;;;0.90;;
57858;SDS011;49153;45.568;11.894;2022-08-02T04:29:34;1.73;;;0.85;;
57858;SDS011;49153;45.568;11.894;2022-08-02T04:32:02;2.45;;;0.90;;
57858;SDS011;49153;45.568;11.894;2022-08-02T04:34:29;1.40;;;1.00;;
57858;SDS011;49153;45.568;11.894;2022-08-02T04:36:55;3.15;;;1.00;;
57858;SDS011;49153;45.568;11.894;2022-08-02T04:39:23;3.65;;;1.23;;
57858;SDS011;49153;45.568;11.894;2022-08-02T04:41:49;3.10;;;1.10;;
57858;SDS011;49153;45.568;11.894;2022-08-02T04:44:16;2.92;;;0.98;;
57858;SDS011;49153;45.568;11.894;2022-08-02T04:47:28;4.60;;;1.73;;
57858;SDS011;49153;45.568;11.894;2022-08-02T04:55:17;2.08;;;1.00;;
57858;SDS011;49153;45.568;11.894;2022-08-02T04:57:58;3.17;;;1.17;;
57858;SDS011;49153;45.568;11.894;2022-08-02T05:00:33;3.88;;;1.08;;
57858;SDS011;49153;45.568;11.894;2022-08-02T05:02:59;4.28;;;1.17;;
57858;SDS011;49153;45.568;11.894;2022-08-02T05:05:25;2.78;;;1.27;;
57858;SDS011;49153;45.568;11.894;2022-08-02T05:07:51;1.55;;;0.90;;
57858;SDS011;49153;45.568;11.894;2022-08-02T05:10:17;1.92;;;1.08;;
57858;SDS011;49153;45.568;11.894;2022-08-02T05:12:43;2.15;;;0.80;;
57858;SDS011;49153;45.568;11.894;2022-08-02T05:15:10;2.88;;;0.93;;
57858;SDS011;49153;45.568;11.894;2022-08-02T05:17:42;2.53;;;1.00;;
57858;SDS011;49153;45.568;11.894;2022-08-02T05:20:17;3.10;;;0.98;;
57858;SDS011;49153;45.568;11.894;2022-08-02T05:22:56;2.38;;;1.10;;
57858;SDS011;49153;45.568;11.894;2022-08-02T05:25:21;1.88;;;1.00;;
57858;SDS011;49153;45.568;11.894;2022-08-02T05:27:47;3.58;;;1.17;;
57858;SDS011;49153;45.568;11.894;2022-08-02T05:30:14;2.38;;;1.20;;
57858;SDS011;49153;45.568;11.894;2022-08-02T05:32:43;3.75;;;1.45;;
57858;SDS011;49153;45.568;11.894;2022-08-02T05:35:10;4.85;;;1.50;;
57858;SDS011;49153;45.568;11.894;2022-08-02T05:37:35;2.03;;;1.45;;
57858;SDS011;49153;45.568;11.894;2022-08-02T05:40:01;2.08;;;1.42;;
57858;SDS011;49153;45.568;11.894;2022-08-02T05:42:30;1.67;;;1.45;;
57858;SDS011;49153;45.568;11.894;2022-08-02T05:44:56;3.05;;;1.55;;
57858;SDS011;49153;45.568;11.894;2022-08-02T05:47:22;2.78;;;1.30;;
57858;SDS011;49153;45.568;11.894;2022-08-02T05:49:48;1.35;;;1.10;;
57858;SDS011;49153;45.568;11.894;2022-08-02T05:52:15;3.40;;;1.20;;
57858;SDS011;49153;45.568;11.894;2022-08-02T05:57:25;3.42;;;1.50;;
57858;SDS011;49153;45.568;11.894;2022-08-02T06:00:03;2.80;;;1.45;;
57858;SDS011;49153;45.568;11.894;2022-08-02T06:08:00;2.75;;;1.70;;
57858;SDS011;49153;45.568;11.894;2022-08-02T06:10:26;4.28;;;1.67;;
57858;SDS011;49153;45.568;11.894;2022-08-02T06:15:21;3.35;;;1.55;;
57858;SDS011;49153;45.568;11.894;2022-08-02T06:17:46;3.60;;;1.48;;
57858;SDS011;49153;45.568;11.894;2022-08-02T06:20:13;2.95;;;1.50;;
57858;SDS011;49153;45.568;11.894;2022-08-02T06:22:40;2.33;;;1.40;;
57858;SDS011;49153;45.568;11.894;2022-08-02T06:25:07;4.45;;;1.60;;
57858;SDS011;49153;45.568;11.894;2022-08-02T06:27:34;4.22;;;1.58;;
57858;SDS011;49153;45.568;11.894;2022-08-02T06:30:01;5.32;;;1.60;;
57858;SDS011;49153;45.568;11.894;2022-08-02T06:32:27;3.72;;;1.80;;
57858;SDS011;49153;45.568;11.894;2022-08-02T06:34:52;3.35;;;1.67;;
57858;SDS011;49153;45.568;11.894;2022-08-02T06:40:22;4.10;;;2.10;;
57858;SDS011;49153;45.568;11.894;2022-08-02T06:45:41;2.72;;;1.67;;
57858;SDS011;49153;45.568;11.894;2022-08-02T06:48:07;3.28;;;1.88;;
57858;SDS011;49153;45.568;11.894;2022-08-02T06:50:34;4.47;;;2.15;;
57858;SDS011;49153;45.568;11.894;2022-08-02T06:53:03;4.25;;;2.10;;
57858;SDS011;49153;45.568;11.894;2022-08-02T06:55:29;4.50;;;2.10;;
57858;SDS011;49153;45.568;11.894;2022-08-02T06:57:56;4.30;;;1.80;;
57858;SDS011;49153;45.568;11.894;2022-08-02T07:00:22;3.25;;;1.77;;
57858;SDS011;49153;45.568;11.894;2022-08-02T07:02:49;2.60;;;1.80;;
57858;SDS011;49153;45.568;11.894;2022-08-02T07:05:16;3.65;;;2.08;;
57858;SDS011;49153;45.568;11.894;2022-08-02T07:07:41;3.85;;;2.20;;
57858;SDS011;49153;45.568;11.894;2022-08-02T07:10:07;2.67;;;2.15;;
57858;SDS011;49153;45.568;11.894;2022-08-02T07:12:33;3.85;;;2.20;;
57858;SDS011;49153;45.568;11.894;2022-08-02T07:15:00;3.97;;;2.10;;
57858;SDS011;49153;45.568;11.894;2022-08-02T07:17:27;4.68;;;2.63;;
57858;SDS011;49153;45.568;11.894;2022-08-02T07:19:53;2.70;;;2.30;;
57858;SDS011;49153;45.568;11.894;2022-08-02T07:22:18;3.75;;;2.30;;
57858;SDS011;49153;45.568;11.894;2022-08-02T07:24:51;2.95;;;2.35;;
57858;SDS011;49153;45.568;11.894;2022-08-02T07:27:17;3.08;;;2.22;;
57858;SDS011;49153;45.568;11.894;2022-08-02T07:29:43;3.28;;;2.17;;
57858;SDS011;49153;45.568;11.894;2022-08-02T07:32:10;2.83;;;2.25;;
57858;SDS011;49153;45.568;11.894;2022-08-02T07:34:42;4.20;;;2.40;;
57858;SDS011;49153;45.568;11.894;2022-08-02T07:38:09;4.70;;;2.30;;
57858;SDS011;49153;45.568;11.894;2022-08-02T07:40:58;4.80;;;1.85;;
57858;SDS011;49153;45.568;11.894;2022-08-02T07:43:28;3.17;;;2.17;;
57858;SDS011;49153;45.568;11.894;2022-08-02T07:45:56;2.88;;;2.15;;
57858;SDS011;49153;45.568;11.894;2022-08-02T07:48:26;5.40;;;2.40;;
57858;SDS011;49153;45.568;11.894;2022-08-02T07:50:55;3.30;;;2.00;;
57858;SDS011;49153;45.568;11.894;2022-08-02T07:53:23;2.47;;;1.52;;
57858;SDS011;49153;45.568;11.894;2022-08-02T07:55:49;5.18;;;1.80;;
57858;SDS011;49153;45.568;11.894;2022-08-02T07:58:16;2.80;;;1.38;;
57858;SDS011;49153;45.568;11.894;2022-08-02T08:00:42;1.95;;;1.75;;
57858;SDS011;49153;45.568;11.894;2022-08-02T08:03:07;3.17;;;2.05;;
57858;SDS011;49153;45.568;11.894;2022-08-02T08:05:33;2.67;;;1.88;;
57858;SDS011;49153;45.568;11.894;2022-08-02T08:07:59;3.83;;;1.88;;
57858;SDS011;49153;45.568;11.894;2022-08-02T08:10:24;4.47;;;1.77;;
57858;SDS011;49153;45.568;11.894;2022-08-02T08:12:49;3.50;;;1.58;;
57858;SDS011;49153;45.568;11.894;2022-08-02T08:15:15;3.58;;;2.00;;
57858;SDS011;49153;45.568;11.894;2022-08-02T08:17:41;4.15;;;2.05;;
57858;SDS011;49153;45.568;11.894;2022-08-02T08:20:06;5.40;;;2.35;;
57858;SDS011;49153;45.568;11.894;2022-08-02T08:22:32;3.42;;;2.55;;
57858;SDS011;49153;45.568;11.894;2022-08-02T08:24:57;5.65;;;2.72;;
57858;SDS011;49153;45.568;11.894;2022-08-02T08:27:23;5.15;;;3.00;;
57858;SDS011;49153;45.568;11.894;2022-08-02T08:29:48;4.60;;;2.95;;
57858;SDS011;49153;45.568;11.894;2022-08-02T08:32:14;4.75;;;2.70;;
57858;SDS011;49153;45.568;11.894;2022-08-02T08:34:40;3.33;;;2.47;;
57858;SDS011;49153;45.568;11.894;2022-08-02T08:37:05;3.50;;;2.75;;
57858;SDS011;49153;45.568;11.894;2022-08-02T08:39:30;5.75;;;3.65;;
57858;SDS011;49153;45.568;11.894;2022-08-02T08:41:56;6.90;;;3.97;;
57858;SDS011;49153;45.568;11.894;2022-08-02T08:44:22;5.72;;;3.25;;
57858;SDS011;49153;45.568;11.894;2022-08-02T08:46:47;5.35;;;3.50;;
57858;SDS011;49153;45.568;11.894;2022-08-02T08:51:42;5.25;;;3.22;;
57858;SDS011;49153;45.568;11.894;2022-08-02T08:54:09;3.83;;;2.75;;
57858;SDS011;49153;45.568;11.894;2022-08-02T08:56:38;4.13;;;2.80;;
57858;SDS011;49153;45.568;11.894;2022-08-02T08:59:06;3.38;;;2.45;;
57858;SDS011;49153;45.568;11.894;2022-08-02T09:01:31;4.80;;;2.60;;
57858;SDS011;49153;45.568;11.894;2022-08-02T09:04:01;3.78;;;2.40;;
57858;SDS011;49153;45.568;11.894;2022-08-02T09:06:27;3.38;;;2.53;;
57858;SDS011;49153;45.568;11.894;2022-08-02T09:08:52;7.22;;;2.40;;
57858;SDS011;49153;45.568;11.894;2022-08-02T09:11:19;5.97;;;2.58;;
57858;SDS011;49153;45.568;11.894;2022-08-02T09:13:57;3.85;;;2.58;;
57858;SDS011;49153;45.568;11.894;2022-08-02T09:19:19;5.57;;;3.80;;
57858;SDS011;49153;45.568;11.894;2022-08-02T09:22:05;5.25;;;4.03;;
57858;SDS011;49153;45.568;11.894;2022-08-02T09:24:45;7.18;;;4.03;;
57858;SDS011;49153;45.568;11.894;2022-08-02T09:27:16;4.45;;;3.63;;
57858;SDS011;49153;45.568;11.894;2022-08-02T09:29:50;6.50;;;3.72;;
57858;SDS011;49153;45.568;11.894;2022-08-02T09:32:17;5.82;;;4.10;;
57858;SDS011;49153;45.568;11.894;2022-08-02T09:34:49;6.90;;;3.95;;
57858;SDS011;49153;45.568;11.894;2022-08-02T09:37:23;4.30;;;3.45;;
57858;SDS011;49153;45.568;11.894;2022-08-02T09:39:53;6.07;;;3.33;;
57858;SDS011;49153;45.568;11.894;2022-08-02T09:42:20;6.03;;;3.42;;
57858;SDS011;49153;45.568;11.894;2022-08-02T09:44:55;3.50;;;2.60;;
57858;SDS011;49153;45.568;11.894;2022-08-02T09:47:23;4.20;;;2.58;;
57858;SDS011;49153;45.568;11.894;2022-08-02T09:49:50;3.20;;;2.10;;
57858;SDS011;49153;45.568;11.894;2022-08-02T09:52:25;3.75;;;2.08;;
57858;SDS011;49153;45.568;11.894;2022-08-02T09:54:54;4.75;;;2.00;;
57858;SDS011;49153;45.568;11.894;2022-08-02T09:57:27;3.42;;;2.20;;
57858;SDS011;49153;45.568;11.894;2022-08-02T09:59:54;3.17;;;1.80;;
57858;SDS011;49153;45.568;11.894;2022-08-02T10:02:20;3.47;;;1.65;;
57858;SDS011;49153;45.568;11.894;2022-08-02T10:04:46;1.88;;;1.67;;
57858;SDS011;49153;45.568;11.894;2022-08-02T10:07:11;2.50;;;1.98;;
57858;SDS011;49153;45.568;11.894;2022-08-02T10:09:37;3.28;;;2.08;;
57858;SDS011;49153;45.568;11.894;2022-08-02T10:12:04;3.28;;;2.00;;
57858;SDS011;49153;45.568;11.894;2022-08-02T10:14:30;2.95;;;1.90;;
57858;SDS011;49153;45.568;11.894;2022-08-02T10:16:57;2.83;;;1.58;;
57858;SDS011;49153;45.568;11.894;2022-08-02T10:19:24;3.42;;;1.58;;
57858;SDS011;49153;45.568;11.894;2022-08-02T10:21:57;3.20;;;1.63;;
57858;SDS011;49153;45.568;11.894;2022-08-02T10:24:34;3.50;;;1.60;;
57858;SDS011;49153;45.568;11.894;2022-08-02T10:27:02;1.70;;;1.60;;
57858;SDS011;49153;45.568;11.894;2022-08-02T10:29:29;2.58;;;1.20;;
57858;SDS011;49153;45.568;11.894;2022-08-02T10:34:35;2.20;;;1.23;;
57858;SDS011;49153;45.568;11.894;2022-08-02T10:37:18;1.50;;;0.80;;
57858;SDS011;49153;45.568;11.894;2022-08-02T10:39:45;1.80;;;0.80;;
57858;SDS011;49153;45.568;11.894;2022-08-02T10:42:11;1.58;;;0.98;;
57858;SDS011;49153;45.568;11.894;2022-08-02T10:44:38;1.45;;;1.00;;
57858;SDS011;49153;45.568;11.894;2022-08-02T10:52:19;0.95;;;0.70;;
57858;SDS011;49153;45.568;11.894;2022-08-02T10:57:25;1.27;;;0.93;;
57858;SDS011;49153;45.568;11.894;2022-08-02T10:59:57;1.85;;;1.00;;
57858;SDS011;49153;45.568;11.894;2022-08-02T11:02:37;4.50;;;1.10;;
57858;SDS011;49153;45.568;11.894;2022-08-02T11:05:08;1.35;;;1.15;;
57858;SDS011;49153;45.568;11.894;2022-08-02T11:07:35;1.20;;;1.00;;
57858;SDS011;49153;45.568;11.894;2022-08-02T11:15:30;0.88;;;0.80;;
57858;SDS011;49153;45.568;11.894;2022-08-02T11:21:24;1.55;;;1.17;;
57858;SDS011;49153;45.568;11.894;2022-08-02T11:23:52;1.30;;;0.90;;
57858;SDS011;49153;45.568;11.894;2022-08-02T11:28:58;2.15;;;1.13;;
57858;SDS011;49153;45.568;11.894;2022-08-02T11:31:28;1.65;;;1.13;;
57858;SDS011;49153;45.568;11.894;2022-08-02T11:34:02;2.10;;;0.88;;
57858;SDS011;49153;45.568;11.894;2022-08-02T11:36:29;1.15;;;0.80;;
57858;SDS011;49153;45.568;11.894;2022-08-02T11:39:10;1.38;;;0.85;;
57858;SDS011;49153;45.568;11.894;2022-08-02T11:41:36;1.27;;;0.90;;
57858;SDS011;49153;45.568;11.894;2022-08-02T11:44:02;1.95;;;0.82;;
57858;SDS011;49153;45.568;11.894;2022-08-02T11:46:28;1.60;;;0.90;;
57858;SDS011;49153;45.568;11.894;2022-08-02T11:48:53;1.13;;;0.80;;
57858;SDS011;49153;45.568;11.894;2022-08-02T11:51:19;1.55;;;1.02;;
57858;SDS011;49153;45.568;11.894;2022-08-02T11:56:14;1.23;;;1.00;;
57858;SDS011;49153;45.568;11.894;2022-08-02T11:58:41;1.98;;;0.90;;
57858;SDS011;49153;45.568;11.894;2022-08-02T12:01:25;1.20;;;0.75;;
57858;SDS011;49153;45.568;11.894;2022-08-02T12:03:50;0.80;;;0.80;;
57858;SDS011;49153;45.568;11.894;2022-08-02T12:06:16;1.20;;;0.80;;
57858;SDS011;49153;45.568;11.894;2022-08-02T12:08:42;1.15;;;0.70;;
57858;SDS011;49153;45.568;11.894;2022-08-02T12:11:08;2.08;;;0.80;;
57858;SDS011;49153;45.568;11.894;2022-08-02T12:13:43;1.00;;;0.90;;
57858;SDS011;49153;45.568;11.894;2022-08-02T12:16:10;1.45;;;0.80;;
57858;SDS011;49153;45.568;11.894;2022-08-02T12:18:55;1.40;;;0.70;;
57858;SDS011;49153;45.568;11.894;2022-08-02T12:21:39;0.65;;;0.65;;
57858;SDS011;49153;45.568;11.894;2022-08-02T12:24:05;0.90;;;0.90;;
57858;SDS011;49153;45.568;11.894;2022-08-02T12:26:39;1.40;;;0.70;;
57858;SDS011;49153;45.568;11.894;2022-08-02T12:29:06;0.70;;;0.70;;
57858;SDS011;49153;45.568;11.894;2022-08-02T12:31:42;0.77;;;0.77;;
57858;SDS011;49153;45.568;11.894;2022-08-02T12:34:15;1.88;;;0.70;;
57858;SDS011;49153;45.568;11.894;2022-08-02T12:39:39;1.85;;;1.00;;
57858;SDS011;49153;45.568;11.894;2022-08-02T12:42:07;1.10;;;1.00;;
57858;SDS011;49153;45.568;11.894;2022-08-02T12:44:35;1.92;;;1.00;;
57858;SDS011;49153;45.568;11.894;2022-08-02T12:47:08;1.10;;;1.00;;
57858;SDS011;49153;45.568;11.894;2022-08-02T12:49:34;0.93;;;0.82;;
57858;SDS011;49153;45.568;11.894;2022-08-02T12:51:59;0.80;;;0.80;;
57858;SDS011;49153;45.568;11.894;2022-08-02T12:54:26;0.80;;;0.80;;
57858;SDS011;49153;45.568;11.894;2022-08-02T12:56:54;1.92;;;1.00;;
57858;SDS011;49153;45.568;11.894;2022-08-02T12:59:36;0.90;;;0.90;;
57858;SDS011;49153;45.568;11.894;2022-08-02T13:02:04;0.80;;;0.80;;
57858;SDS011;49153;45.568;11.894;2022-08-02T13:04:32;0.90;;;0.77;;
57858;SDS011;49153;45.568;11.894;2022-08-02T13:06:58;1.00;;;0.90;;
57858;SDS011;49153;45.568;11.894;2022-08-02T13:09:24;0.80;;;0.80;;
57858;SDS011;49153;45.568;11.894;2022-08-02T13:11:49;0.80;;;0.80;;
57858;SDS011;49153;45.568;11.894;2022-08-02T13:14:14;1.30;;;0.98;;
57858;SDS011;49153;45.568;11.894;2022-08-02T13:16:41;0.70;;;0.70;;
57858;SDS011;49153;45.568;11.894;2022-08-02T13:19:08;1.02;;;0.70;;
57858;SDS011;49153;45.568;11.894;2022-08-02T13:21:33;0.80;;;0.80;;
57858;SDS011;49153;45.568;11.894;2022-08-02T13:23:59;0.70;;;0.70;;
57858;SDS011;49153;45.568;11.894;2022-08-02T13:26:24;2.25;;;1.08;;
57858;SDS011;49153;45.568;11.894;2022-08-02T13:28:50;1.58;;;1.05;;
57858;SDS011;49153;45.568;11.894;2022-08-02T13:31:16;1.23;;;0.80;;
57858;SDS011;49153;45.568;11.894;2022-08-02T13:33:42;0.90;;;0.88;;
57858;SDS011;49153;45.568;11.894;2022-08-02T13:36:07;1.10;;;1.00;;
57858;SDS011;49153;45.568;11.894;2022-08-02T13:38:33;1.00;;;0.90;;
57858;SDS011;49153;45.568;11.894;2022-08-02T13:40:58;1.00;;;0.90;;
57858;SDS011;49153;45.568;11.894;2022-08-02T13:43:33;1.08;;;0.98;;
57858;SDS011;49153;45.568;11.894;2022-08-02T13:45:59;1.00;;;1.00;;
57858;SDS011;49153;45.568;11.894;2022-08-02T13:48:24;1.10;;;1.00;;
57858;SDS011;49153;45.568;11.894;2022-08-02T13:50:50;1.10;;;1.00;;
57858;SDS011;49153;45.568;11.894;2022-08-02T13:53:15;1.15;;;0.93;;
57858;SDS011;49153;45.568;11.894;2022-08-02T13:55:40;3.47;;;1.02;;
57858;SDS011;49153;45.568;11.894;2022-08-02T13:58:06;0.80;;;0.80;;
57858;SDS011;49153;45.568;11.894;2022-08-02T14:00:31;1.80;;;1.00;;
57858;SDS011;49153;45.568;11.894;2022-08-02T14:02:57;1.92;;;1.08;;
57858;SDS011;49153;45.568;11.894;2022-08-02T14:05:22;1.48;;;1.10;;
57858;SDS011;49153;45.568;11.894;2022-08-02T14:07:54;1.33;;;1.10;;
57858;SDS011;49153;45.568;11.894;2022-08-02T14:10:21;1.27;;;1.00;;
57858;SDS011;49153;45.568;11.894;2022-08-02T14:12:46;1.42;;;1.10;;
57858;SDS011;49153;45.568;11.894;2022-08-02T14:15:12;1.00;;;1.00;;
57858;SDS011;49153;45.568;11.894;2022-08-02T14:17:37;1.55;;;1.00;;
57858;SDS011;49153;45.568;11.894;2022-08-02T14:20:03;1.00;;;0.93;;
57858;SDS011;49153;45.568;11.894;2022-08-02T14:22:28;1.10;;;1.00;;
57858;SDS011;49153;45.568;11.894;2022-08-02T14:24:54;1.83;;;1.00;;
57858;SDS011;49153;45.568;11.894;2022-08-02T14:27:19;1.23;;;1.00;;
57858;SDS011;49153;45.568;11.894;2022-08-02T14:29:45;1.02;;;0.93;;
57858;SDS011;49153;45.568;11.894;2022-08-02T14:32:12;1.38;;;1.13;;
57858;SDS011;49153;45.568;11.894;2022-08-02T14:34:37;1.50;;;1.20;;
57858;SDS011;49153;45.568;11.894;2022-08-02T14:37:03;2.20;;;1.20;;
57858;SDS011;49153;45.568;11.894;2022-08-02T14:39:28;1.20;;;1.10;;
57858;SDS011;49153;45.568;11.894;2022-08-02T14:41:57;1.15;;;1.02;;
57858;SDS011;49153;45.568;11.894;2022-08-02T14:44:22;1.30;;;1.08;;
57858;SDS011;49153;45.568;11.894;2022-08-02T14:46:48;1.30;;;1.10;;
57858;SDS011;49153;45.568;11.894;2022-08-02T14:49:13;0.93;;;0.93;;
57858;SDS011;49153;45.568;11.894;2022-08-02T14:51:39;1.42;;;1.02;;
57858;SDS011;49153;45.568;11.894;2022-08-02T14:54:05;1.20;;;1.10;;
57858;SDS011;49153;45.568;11.894;2022-08-02T14:56:32;1.00;;;0.90;;
57858;SDS011;49153;45.568;11.894;2022-08-02T14:58:58;0.93;;;0.93;;
57858;SDS011;49153;45.568;11.894;2022-08-02T15:01:24;1.10;;;1.00;;
57858;SDS011;49153;45.568;11.894;2022-08-02T15:03:49;1.20;;;1.10;;
57858;SDS011;49153;45.568;11.894;2022-08-02T15:06:15;1.08;;;0.98;;
57858;SDS011;49153;45.568;11.894;2022-08-02T15:08:42;1.08;;;0.90;;
57858;SDS011;49153;45.568;11.894;2022-08-02T15:11:07;1.58;;;1.20;;
57858;SDS011;49153;45.568;11.894;2022-08-02T15:13:33;1.30;;;1.10;;
57858;SDS011;49153;45.568;11.894;2022-08-02T15:15:58;1.15;;;1.10;;
57858;SDS011;49153;45.568;11.894;2022-08-02T15:18:23;1.40;;;1.27;;
57858;SDS011;49153;45.568;11.894;2022-08-02T15:20:49;1.00;;;0.95;;
57858;SDS011;49153;45.568;11.894;2022-08-02T15:23:14;1.63;;;1.08;;
57858;SDS011;49153;45.568;11.894;2022-08-02T15:25:41;6.10;;;1.30;;
57858;SDS011;49153;45.568;11.894;2022-08-02T15:28:07;1.35;;;1.15;;
57858;SDS011;49153;45.568;11.894;2022-08-02T15:30:33;1.10;;;1.02;;
57858;SDS011;49153;45.568;11.894;2022-08-02T15:33:00;1.20;;;1.10;;
57858;SDS011;49153;45.568;11.894;2022-08-02T15:35:25;1.27;;;1.17;;
57858;SDS011;49153;45.568;11.894;2022-08-02T15:37:51;1.30;;;1.20;;
57858;SDS011;49153;45.568;11.894;2022-08-02T15:40:16;1.45;;;1.15;;
57858;SDS011;49153;45.568;11.894;2022-08-02T15:42:42;1.23;;;1.00;;
57858;SDS011;49153;45.568;11.894;2022-08-02T15:45:08;1.30;;;1.20;;
57858;SDS011;49153;45.568;11.894;2022-08-02T15:47:34;2.50;;;1.20;;
57858;SDS011;49153;45.568;11.894;2022-08-02T15:49:59;1.38;;;1.20;;
57858;SDS011;49153;45.568;11.894;2022-08-02T15:52:25;1.30;;;1.00;;
57858;SDS011;49153;45.568;11.894;2022-08-02T15:54:51;1.10;;;1.00;;